Rawlins, WY (82301)

8:28 AM MST on February 07, 2016 (GMT -0700)
Highland Towne | | Change Station
CLOSE
Current Station
Personal Weather Station
Location: Rawlins, WY
Elevation: 6831 ft
Nearby Weather Stations

Elev 6831 ft 41.82 °N, 107.22 °W | Updated 2 minutes ago

Clear
Clear
23.7 °F
Feels Like 14 °F
N
9.4
Wind Variable Wind from West

Today
High -- | Low -- °F
--% Chance of Precip.
Yesterday
High -- | Low -- °F
Precip. -- in
Pressure 30.44 in
Visibility 10.0 miles
Clouds Clear
Windchill 14 °F
Dew Point 17 °F
Humidity 76%
Rainfall 0.00 in
Snow Depth Not available.
7:15 AM 5:31 PM
Waning Crescent, 1% visible
METAR KRWL 071453Z AUTO 25016KT 10SM CLR M06/M10 A3032 RMK AO2 PK WND 24026/1416 SLP307 T10611100 53015
Pressure 30.44 in
Visibility 10.0 miles
Clouds Clear
Windchill 14 °F
Dew Point 17 °F
Humidity 76%
Rainfall 0.00 in
Snow Depth Not available.
7:15 AM 5:31 PM
Waning Crescent, 1% visible
METAR KRWL 071453Z AUTO 25016KT 10SM CLR M06/M10 A3032 RMK AO2 PK WND 24026/1416 SLP307 T10611100 53015

10-Day Weather Forecast

Almanac

Astronomy

Feb. 07, 2016 Rise Set
Actual Time
Civil Twilight
Nautical Twilight
Astronomical Twilight
Moon
Length of Visible Light
Length of Day
Tomorrow will be .
, % of the Moon is Illuminated

Today's Extremes

State Highs State Lows

Community

WunderPhotos

Upload Photos

1,891,214 photos uploaded!

WunderBlog® & News

Nearby

Air Quality

  Air Quality AQ Index Pollutant
Not available.

Snow Depth

Station Depth Elevation

Earthquake Activity

City Distance Mag. Time & Date
Minimum magnitude displayed is 2.5.

Coastal Water Temperatures

Place Temperature

Stations

Nearby Weather Stations

Station Location Temp. Windchill Dew Point Humidity Wind Precip. Elev Updated Type
                   

Watches & Warnings

There are currently no watches in effect.